sensor_id;sensor_type;location;lat;lon;timestamp;P1;durP1;ratioP1;P2;durP2;ratioP2
36651;SDS011;53334;51.976;20.144;2023-05-07T00:00:24;3.55;;;3.13;;
36651;SDS011;53334;51.976;20.144;2023-05-07T00:02:58;5.22;;;4.03;;
36651;SDS011;53334;51.976;20.144;2023-05-07T00:05:31;5.28;;;3.50;;
36651;SDS011;53334;51.976;20.144;2023-05-07T00:08:04;6.28;;;3.38;;
36651;SDS011;53334;51.976;20.144;2023-05-07T00:10:39;5.28;;;3.35;;
36651;SDS011;53334;51.976;20.144;2023-05-07T00:13:12;13.43;;;5.03;;
36651;SDS011;53334;51.976;20.144;2023-05-07T00:15:45;4.72;;;3.20;;
36651;SDS011;53334;51.976;20.144;2023-05-07T00:18:19;4.40;;;3.53;;
36651;SDS011;53334;51.976;20.144;2023-05-07T00:20:54;5.43;;;2.92;;
36651;SDS011;53334;51.976;20.144;2023-05-07T00:23:27;4.53;;;3.15;;
36651;SDS011;53334;51.976;20.144;2023-05-07T00:26:02;4.32;;;2.78;;
36651;SDS011;53334;51.976;20.144;2023-05-07T00:28:35;5.90;;;3.50;;
36651;SDS011;53334;51.976;20.144;2023-05-07T00:31:08;4.57;;;3.33;;
36651;SDS011;53334;51.976;20.144;2023-05-07T00:33:42;3.25;;;2.92;;
36651;SDS011;53334;51.976;20.144;2023-05-07T00:36:15;4.40;;;3.10;;
36651;SDS011;53334;51.976;20.144;2023-05-07T00:38:48;6.63;;;3.25;;
36651;SDS011;53334;51.976;20.144;2023-05-07T00:41:23;3.53;;;3.08;;
36651;SDS011;53334;51.976;20.144;2023-05-07T00:43:56;5.00;;;3.13;;
36651;SDS011;53334;51.976;20.144;2023-05-07T00:46:30;5.00;;;3.05;;
36651;SDS011;53334;51.976;20.144;2023-05-07T00:49:03;5.78;;;3.47;;
36651;SDS011;53334;51.976;20.144;2023-05-07T00:51:37;4.18;;;3.03;;
36651;SDS011;53334;51.976;20.144;2023-05-07T00:54:11;3.50;;;2.70;;
36651;SDS011;53334;51.976;20.144;2023-05-07T00:56:46;4.53;;;3.00;;
36651;SDS011;53334;51.976;20.144;2023-05-07T00:59:20;4.32;;;2.97;;
36651;SDS011;53334;51.976;20.144;2023-05-07T01:01:54;3.97;;;3.45;;
36651;SDS011;53334;51.976;20.144;2023-05-07T01:04:27;5.30;;;2.85;;
36651;SDS011;53334;51.976;20.144;2023-05-07T01:07:01;3.67;;;2.85;;
36651;SDS011;53334;51.976;20.144;2023-05-07T01:09:36;4.50;;;3.85;;
36651;SDS011;53334;51.976;20.144;2023-05-07T01:12:11;5.35;;;3.40;;
36651;SDS011;53334;51.976;20.144;2023-05-07T01:14:45;3.83;;;3.30;;
36651;SDS011;53334;51.976;20.144;2023-05-07T01:17:20;3.17;;;2.70;;
36651;SDS011;53334;51.976;20.144;2023-05-07T01:19:54;3.08;;;2.60;;
36651;SDS011;53334;51.976;20.144;2023-05-07T01:22:30;5.55;;;3.13;;
36651;SDS011;53334;51.976;20.144;2023-05-07T01:25:06;5.22;;;2.70;;
36651;SDS011;53334;51.976;20.144;2023-05-07T01:27:45;3.35;;;2.88;;
36651;SDS011;53334;51.976;20.144;2023-05-07T01:30:18;6.50;;;3.00;;
36651;SDS011;53334;51.976;20.144;2023-05-07T01:32:56;4.82;;;2.70;;
36651;SDS011;53334;51.976;20.144;2023-05-07T01:35:35;4.05;;;2.67;;
36651;SDS011;53334;51.976;20.144;2023-05-07T01:38:13;6.38;;;2.90;;
36651;SDS011;53334;51.976;20.144;2023-05-07T01:40:46;2.88;;;2.65;;
36651;SDS011;53334;51.976;20.144;2023-05-07T01:43:19;3.53;;;2.95;;
36651;SDS011;53334;51.976;20.144;2023-05-07T01:45:53;3.55;;;2.85;;
36651;SDS011;53334;51.976;20.144;2023-05-07T01:48:27;4.35;;;2.80;;
36651;SDS011;53334;51.976;20.144;2023-05-07T01:51:01;5.10;;;2.55;;
36651;SDS011;53334;51.976;20.144;2023-05-07T01:53:37;2.60;;;2.40;;
36651;SDS011;53334;51.976;20.144;2023-05-07T01:56:12;3.08;;;2.75;;
36651;SDS011;53334;51.976;20.144;2023-05-07T01:58:46;4.15;;;3.20;;
36651;SDS011;53334;51.976;20.144;2023-05-07T02:01:20;3.22;;;2.83;;
36651;SDS011;53334;51.976;20.144;2023-05-07T02:06:30;2.88;;;2.50;;
36651;SDS011;53334;51.976;20.144;2023-05-07T02:09:11;3.25;;;2.53;;
36651;SDS011;53334;51.976;20.144;2023-05-07T02:11:50;3.40;;;2.60;;
36651;SDS011;53334;51.976;20.144;2023-05-07T02:14:24;3.45;;;2.50;;
36651;SDS011;53334;51.976;20.144;2023-05-07T02:16:58;3.17;;;2.50;;
36651;SDS011;53334;51.976;20.144;2023-05-07T02:19:31;2.95;;;2.65;;
36651;SDS011;53334;51.976;20.144;2023-05-07T02:22:04;4.32;;;3.00;;
36651;SDS011;53334;51.976;20.144;2023-05-07T02:24:39;5.45;;;2.67;;
36651;SDS011;53334;51.976;20.144;2023-05-07T02:27:12;4.18;;;2.60;;
36651;SDS011;53334;51.976;20.144;2023-05-07T02:29:47;3.45;;;2.70;;
36651;SDS011;53334;51.976;20.144;2023-05-07T02:32:21;4.28;;;2.22;;
36651;SDS011;53334;51.976;20.144;2023-05-07T02:37:27;3.05;;;2.75;;
36651;SDS011;53334;51.976;20.144;2023-05-07T02:40:02;6.72;;;2.80;;
36651;SDS011;53334;51.976;20.144;2023-05-07T02:42:36;2.72;;;2.47;;
36651;SDS011;53334;51.976;20.144;2023-05-07T02:45:10;2.80;;;2.47;;
36651;SDS011;53334;51.976;20.144;2023-05-07T02:47:43;4.68;;;2.78;;
36651;SDS011;53334;51.976;20.144;2023-05-07T02:50:17;4.80;;;2.58;;
36651;SDS011;53334;51.976;20.144;2023-05-07T02:52:50;2.95;;;2.67;;
36651;SDS011;53334;51.976;20.144;2023-05-07T02:55:25;3.78;;;2.53;;
36651;SDS011;53334;51.976;20.144;2023-05-07T02:57:58;3.92;;;2.88;;
36651;SDS011;53334;51.976;20.144;2023-05-07T03:00:31;3.05;;;2.35;;
36651;SDS011;53334;51.976;20.144;2023-05-07T03:03:40;2.33;;;2.00;;
36651;SDS011;53334;51.976;20.144;2023-05-07T03:06:13;3.83;;;2.45;;
36651;SDS011;53334;51.976;20.144;2023-05-07T03:08:47;3.40;;;2.55;;
36651;SDS011;53334;51.976;20.144;2023-05-07T03:11:21;3.15;;;2.75;;
36651;SDS011;53334;51.976;20.144;2023-05-07T03:13:55;2.58;;;2.33;;
36651;SDS011;53334;51.976;20.144;2023-05-07T03:16:28;3.13;;;2.42;;
36651;SDS011;53334;51.976;20.144;2023-05-07T03:19:01;5.60;;;2.25;;
36651;SDS011;53334;51.976;20.144;2023-05-07T03:21:35;2.58;;;1.88;;
36651;SDS011;53334;51.976;20.144;2023-05-07T03:24:08;2.65;;;2.35;;
36651;SDS011;53334;51.976;20.144;2023-05-07T03:26:43;4.32;;;2.15;;
36651;SDS011;53334;51.976;20.144;2023-05-07T03:29:16;2.30;;;1.90;;
36651;SDS011;53334;51.976;20.144;2023-05-07T03:31:49;3.03;;;2.58;;
36651;SDS011;53334;51.976;20.144;2023-05-07T03:34:23;2.55;;;2.35;;
36651;SDS011;53334;51.976;20.144;2023-05-07T03:36:56;2.38;;;2.17;;
36651;SDS011;53334;51.976;20.144;2023-05-07T03:39:30;2.80;;;2.60;;
36651;SDS011;53334;51.976;20.144;2023-05-07T03:44:38;3.10;;;2.80;;
36651;SDS011;53334;51.976;20.144;2023-05-07T03:47:11;9.80;;;3.78;;
36651;SDS011;53334;51.976;20.144;2023-05-07T03:49:46;4.40;;;2.20;;
36651;SDS011;53334;51.976;20.144;2023-05-07T03:52:20;3.65;;;2.10;;
36651;SDS011;53334;51.976;20.144;2023-05-07T03:55:00;3.38;;;2.38;;
36651;SDS011;53334;51.976;20.144;2023-05-07T03:57:37;2.53;;;2.33;;
36651;SDS011;53334;51.976;20.144;2023-05-07T04:00:11;2.58;;;2.00;;
36651;SDS011;53334;51.976;20.144;2023-05-07T04:02:51;2.53;;;2.03;;
36651;SDS011;53334;51.976;20.144;2023-05-07T04:05:30;2.20;;;2.00;;
36651;SDS011;53334;51.976;20.144;2023-05-07T04:08:06;2.28;;;2.08;;
36651;SDS011;53334;51.976;20.144;2023-05-07T04:10:43;4.65;;;1.98;;
36651;SDS011;53334;51.976;20.144;2023-05-07T04:13:19;2.67;;;2.38;;
36651;SDS011;53334;51.976;20.144;2023-05-07T04:15:53;2.20;;;1.63;;
36651;SDS011;53334;51.976;20.144;2023-05-07T04:18:28;2.90;;;2.30;;
36651;SDS011;53334;51.976;20.144;2023-05-07T04:21:01;2.00;;;1.80;;
36651;SDS011;53334;51.976;20.144;2023-05-07T04:23:35;3.15;;;2.28;;
36651;SDS011;53334;51.976;20.144;2023-05-07T04:26:12;2.80;;;2.45;;
36651;SDS011;53334;51.976;20.144;2023-05-07T04:28:49;3.33;;;2.38;;
36651;SDS011;53334;51.976;20.144;2023-05-07T04:31:23;2.35;;;2.15;;
36651;SDS011;53334;51.976;20.144;2023-05-07T04:33:58;6.22;;;2.00;;
36651;SDS011;53334;51.976;20.144;2023-05-07T04:36:32;3.33;;;2.17;;
36651;SDS011;53334;51.976;20.144;2023-05-07T04:39:10;2.20;;;2.00;;
36651;SDS011;53334;51.976;20.144;2023-05-07T04:41:46;2.40;;;2.20;;
36651;SDS011;53334;51.976;20.144;2023-05-07T04:44:21;2.10;;;2.00;;
36651;SDS011;53334;51.976;20.144;2023-05-07T04:46:55;1.85;;;1.73;;
36651;SDS011;53334;51.976;20.144;2023-05-07T04:49:29;3.30;;;2.00;;
36651;SDS011;53334;51.976;20.144;2023-05-07T04:52:03;2.42;;;2.10;;
36651;SDS011;53334;51.976;20.144;2023-05-07T04:54:37;2.17;;;1.98;;
36651;SDS011;53334;51.976;20.144;2023-05-07T04:57:11;2.30;;;2.10;;
36651;SDS011;53334;51.976;20.144;2023-05-07T04:59:47;1.98;;;1.77;;
36651;SDS011;53334;51.976;20.144;2023-05-07T05:02:20;2.72;;;2.05;;
36651;SDS011;53334;51.976;20.144;2023-05-07T05:04:53;4.00;;;2.42;;
36651;SDS011;53334;51.976;20.144;2023-05-07T05:10:01;2.67;;;2.47;;
36651;SDS011;53334;51.976;20.144;2023-05-07T05:12:38;4.03;;;2.00;;
36651;SDS011;53334;51.976;20.144;2023-05-07T05:17:46;2.80;;;1.85;;
36651;SDS011;53334;51.976;20.144;2023-05-07T05:20:20;1.90;;;1.70;;
36651;SDS011;53334;51.976;20.144;2023-05-07T05:22:53;2.75;;;1.88;;
36651;SDS011;53334;51.976;20.144;2023-05-07T05:25:26;1.88;;;1.75;;
36651;SDS011;53334;51.976;20.144;2023-05-07T05:28:01;2.50;;;1.90;;
36651;SDS011;53334;51.976;20.144;2023-05-07T05:30:39;2.28;;;2.00;;
36651;SDS011;53334;51.976;20.144;2023-05-07T05:33:13;2.03;;;1.90;;
36651;SDS011;53334;51.976;20.144;2023-05-07T05:35:47;2.42;;;2.17;;
36651;SDS011;53334;51.976;20.144;2023-05-07T05:38:20;2.80;;;2.58;;
36651;SDS011;53334;51.976;20.144;2023-05-07T05:40:54;2.80;;;1.73;;
36651;SDS011;53334;51.976;20.144;2023-05-07T05:43:27;10.63;;;2.03;;
36651;SDS011;53334;51.976;20.144;2023-05-07T05:46:02;2.65;;;1.77;;
36651;SDS011;53334;51.976;20.144;2023-05-07T05:48:38;3.97;;;2.05;;
36651;SDS011;53334;51.976;20.144;2023-05-07T05:51:12;2.10;;;1.90;;
36651;SDS011;53334;51.976;20.144;2023-05-07T05:53:45;2.17;;;1.60;;
36651;SDS011;53334;51.976;20.144;2023-05-07T05:56:19;2.20;;;2.00;;
36651;SDS011;53334;51.976;20.144;2023-05-07T05:58:52;1.60;;;1.50;;
36651;SDS011;53334;51.976;20.144;2023-05-07T06:01:27;2.00;;;1.80;;
36651;SDS011;53334;51.976;20.144;2023-05-07T06:04:04;2.13;;;1.92;;
36651;SDS011;53334;51.976;20.144;2023-05-07T06:09:12;2.40;;;1.80;;
36651;SDS011;53334;51.976;20.144;2023-05-07T06:11:48;2.35;;;1.60;;
36651;SDS011;53334;51.976;20.144;2023-05-07T06:14:22;2.75;;;2.10;;
36651;SDS011;53334;51.976;20.144;2023-05-07T06:16:57;2.80;;;2.35;;
36651;SDS011;53334;51.976;20.144;2023-05-07T06:19:31;2.28;;;2.03;;
36651;SDS011;53334;51.976;20.144;2023-05-07T06:22:04;1.70;;;1.60;;
36651;SDS011;53334;51.976;20.144;2023-05-07T06:24:39;2.40;;;1.83;;
36651;SDS011;53334;51.976;20.144;2023-05-07T06:27:13;2.17;;;1.95;;
36651;SDS011;53334;51.976;20.144;2023-05-07T06:29:47;1.73;;;1.50;;
36651;SDS011;53334;51.976;20.144;2023-05-07T06:32:23;2.03;;;1.77;;
36651;SDS011;53334;51.976;20.144;2023-05-07T06:34:56;2.03;;;1.75;;
36651;SDS011;53334;51.976;20.144;2023-05-07T06:37:30;1.83;;;1.73;;
36651;SDS011;53334;51.976;20.144;2023-05-07T06:40:07;2.10;;;1.90;;
36651;SDS011;53334;51.976;20.144;2023-05-07T06:42:43;2.10;;;1.85;;
36651;SDS011;53334;51.976;20.144;2023-05-07T06:45:32;1.77;;;1.60;;
36651;SDS011;53334;51.976;20.144;2023-05-07T06:48:07;2.65;;;2.00;;
36651;SDS011;53334;51.976;20.144;2023-05-07T06:50:50;2.05;;;1.60;;
36651;SDS011;53334;51.976;20.144;2023-05-07T06:53:25;3.60;;;1.48;;
36651;SDS011;53334;51.976;20.144;2023-05-07T06:56:00;2.55;;;1.67;;
36651;SDS011;53334;51.976;20.144;2023-05-07T06:58:33;4.47;;;1.90;;
36651;SDS011;53334;51.976;20.144;2023-05-07T07:01:07;3.65;;;1.63;;
36651;SDS011;53334;51.976;20.144;2023-05-07T07:03:42;6.28;;;1.90;;
36651;SDS011;53334;51.976;20.144;2023-05-07T07:06:16;5.22;;;2.35;;
36651;SDS011;53334;51.976;20.144;2023-05-07T07:08:49;6.05;;;2.20;;
36651;SDS011;53334;51.976;20.144;2023-05-07T07:13:57;7.18;;;2.50;;
36651;SDS011;53334;51.976;20.144;2023-05-07T07:16:30;3.65;;;1.85;;
36651;SDS011;53334;51.976;20.144;2023-05-07T07:19:05;2.22;;;1.92;;
36651;SDS011;53334;51.976;20.144;2023-05-07T07:21:38;2.22;;;1.80;;
36651;SDS011;53334;51.976;20.144;2023-05-07T07:26:52;3.25;;;1.98;;
36651;SDS011;53334;51.976;20.144;2023-05-07T07:29:28;8.00;;;1.75;;
36651;SDS011;53334;51.976;20.144;2023-05-07T07:34:37;2.40;;;2.20;;
36651;SDS011;53334;51.976;20.144;2023-05-07T07:37:10;3.38;;;2.00;;
36651;SDS011;53334;51.976;20.144;2023-05-07T07:39:44;3.58;;;1.85;;
36651;SDS011;53334;51.976;20.144;2023-05-07T07:42:19;3.10;;;1.90;;
36651;SDS011;53334;51.976;20.144;2023-05-07T07:44:53;3.58;;;1.92;;
36651;SDS011;53334;51.976;20.144;2023-05-07T07:47:27;4.10;;;2.10;;
36651;SDS011;53334;51.976;20.144;2023-05-07T07:50:03;3.05;;;1.83;;
36651;SDS011;53334;51.976;20.144;2023-05-07T07:52:37;2.67;;;1.92;;
36651;SDS011;53334;51.976;20.144;2023-05-07T07:55:11;7.05;;;2.13;;
36651;SDS011;53334;51.976;20.144;2023-05-07T08:00:19;5.75;;;2.35;;
36651;SDS011;53334;51.976;20.144;2023-05-07T08:02:56;4.22;;;2.05;;
36651;SDS011;53334;51.976;20.144;2023-05-07T08:05:36;80.55;;;31.73;;
36651;SDS011;53334;51.976;20.144;2023-05-07T08:08:11;135.07;;;56.08;;
36651;SDS011;53334;51.976;20.144;2023-05-07T08:10:46;118.00;;;46.58;;
36651;SDS011;53334;51.976;20.144;2023-05-07T08:13:29;303.52;;;128.13;;
36651;SDS011;53334;51.976;20.144;2023-05-07T08:16:03;378.48;;;163.85;;
36651;SDS011;53334;51.976;20.144;2023-05-07T08:18:38;546.20;;;268.42;;
36651;SDS011;53334;51.976;20.144;2023-05-07T08:21:13;521.08;;;246.65;;
36651;SDS011;53334;51.976;20.144;2023-05-07T08:23:47;527.85;;;251.43;;
36651;SDS011;53334;51.976;20.144;2023-05-07T08:26:20;549.40;;;259.95;;
36651;SDS011;53334;51.976;20.144;2023-05-07T08:28:55;558.67;;;282.38;;
36651;SDS011;53334;51.976;20.144;2023-05-07T08:31:29;634.97;;;324.98;;
36651;SDS011;53334;51.976;20.144;2023-05-07T08:34:02;719.33;;;362.20;;
36651;SDS011;53334;51.976;20.144;2023-05-07T08:36:43;503.35;;;238.60;;
36651;SDS011;53334;51.976;20.144;2023-05-07T08:39:19;28.85;;;15.95;;
36651;SDS011;53334;51.976;20.144;2023-05-07T08:41:56;38.05;;;16.58;;
36651;SDS011;53334;51.976;20.144;2023-05-07T08:44:34;45.22;;;18.48;;
36651;SDS011;53334;51.976;20.144;2023-05-07T08:47:07;31.45;;;16.65;;
36651;SDS011;53334;51.976;20.144;2023-05-07T08:49:42;37.67;;;16.08;;
36651;SDS011;53334;51.976;20.144;2023-05-07T08:52:17;28.38;;;13.85;;
36651;SDS011;53334;51.976;20.144;2023-05-07T08:54:52;42.00;;;19.70;;
36651;SDS011;53334;51.976;20.144;2023-05-07T08:57:26;35.70;;;17.80;;
36651;SDS011;53334;51.976;20.144;2023-05-07T08:59:59;32.20;;;14.82;;
36651;SDS011;53334;51.976;20.144;2023-05-07T09:02:33;29.45;;;15.80;;
36651;SDS011;53334;51.976;20.144;2023-05-07T09:05:08;30.77;;;15.02;;
36651;SDS011;53334;51.976;20.144;2023-05-07T09:07:44;30.58;;;14.85;;
36651;SDS011;53334;51.976;20.144;2023-05-07T09:10:19;26.42;;;12.45;;
36651;SDS011;53334;51.976;20.144;2023-05-07T09:12:54;41.45;;;16.35;;
36651;SDS011;53334;51.976;20.144;2023-05-07T09:15:28;32.53;;;14.60;;
36651;SDS011;53334;51.976;20.144;2023-05-07T09:18:02;38.55;;;16.15;;
36651;SDS011;53334;51.976;20.144;2023-05-07T09:20:38;35.83;;;15.90;;
36651;SDS011;53334;51.976;20.144;2023-05-07T09:23:14;34.42;;;14.27;;
36651;SDS011;53334;51.976;20.144;2023-05-07T09:25:48;38.63;;;16.38;;
36651;SDS011;53334;51.976;20.144;2023-05-07T09:28:28;29.13;;;14.07;;
36651;SDS011;53334;51.976;20.144;2023-05-07T09:31:04;33.70;;;13.90;;
36651;SDS011;53334;51.976;20.144;2023-05-07T09:33:38;33.22;;;14.02;;
36651;SDS011;53334;51.976;20.144;2023-05-07T09:36:14;32.63;;;15.63;;
36651;SDS011;53334;51.976;20.144;2023-05-07T09:38:50;38.35;;;14.80;;
36651;SDS011;53334;51.976;20.144;2023-05-07T09:41:23;36.50;;;12.52;;
36651;SDS011;53334;51.976;20.144;2023-05-07T09:44:07;31.13;;;14.55;;
36651;SDS011;53334;51.976;20.144;2023-05-07T09:46:49;44.00;;;14.10;;
36651;SDS011;53334;51.976;20.144;2023-05-07T09:49:33;31.58;;;14.32;;
36651;SDS011;53334;51.976;20.144;2023-05-07T09:52:12;36.13;;;13.70;;
36651;SDS011;53334;51.976;20.144;2023-05-07T09:54:52;34.80;;;13.27;;
36651;SDS011;53334;51.976;20.144;2023-05-07T09:57:31;27.92;;;13.02;;
36651;SDS011;53334;51.976;20.144;2023-05-07T10:00:10;29.73;;;12.80;;
36651;SDS011;53334;51.976;20.144;2023-05-07T10:02:53;28.85;;;13.55;;
36651;SDS011;53334;51.976;20.144;2023-05-07T10:05:39;27.92;;;12.00;;
36651;SDS011;53334;51.976;20.144;2023-05-07T10:08:13;28.88;;;12.95;;
36651;SDS011;53334;51.976;20.144;2023-05-07T10:10:52;25.73;;;10.40;;
36651;SDS011;53334;51.976;20.144;2023-05-07T10:13:29;32.78;;;13.40;;
36651;SDS011;53334;51.976;20.144;2023-05-07T10:16:04;28.55;;;11.65;;
36651;SDS011;53334;51.976;20.144;2023-05-07T10:18:44;23.08;;;10.32;;
36651;SDS011;53334;51.976;20.144;2023-05-07T10:21:23;33.50;;;12.60;;
36651;SDS011;53334;51.976;20.144;2023-05-07T10:24:03;23.13;;;12.20;;
36651;SDS011;53334;51.976;20.144;2023-05-07T10:26:42;27.10;;;9.90;;
36651;SDS011;53334;51.976;20.144;2023-05-07T10:29:18;32.33;;;11.82;;
36651;SDS011;53334;51.976;20.144;2023-05-07T10:35:06;29.52;;;10.82;;
36651;SDS011;53334;51.976;20.144;2023-05-07T10:37:46;25.55;;;10.77;;
36651;SDS011;53334;51.976;20.144;2023-05-07T10:40:21;21.13;;;10.55;;
36651;SDS011;53334;51.976;20.144;2023-05-07T10:42:58;21.00;;;9.82;;
36651;SDS011;53334;51.976;20.144;2023-05-07T10:45:36;29.02;;;11.68;;
36651;SDS011;53334;51.976;20.144;2023-05-07T10:51:19;25.48;;;10.55;;
36651;SDS011;53334;51.976;20.144;2023-05-07T10:54:20;24.40;;;10.85;;
36651;SDS011;53334;51.976;20.144;2023-05-07T11:03:25;30.13;;;10.50;;
36651;SDS011;53334;51.976;20.144;2023-05-07T11:06:10;25.52;;;9.25;;
36651;SDS011;53334;51.976;20.144;2023-05-07T11:08:55;22.98;;;9.30;;
36651;SDS011;53334;51.976;20.144;2023-05-07T11:11:45;21.95;;;8.95;;
36651;SDS011;53334;51.976;20.144;2023-05-07T11:14:42;25.38;;;8.50;;
36651;SDS011;53334;51.976;20.144;2023-05-07T11:20:51;17.95;;;8.52;;
36651;SDS011;53334;51.976;20.144;2023-05-07T11:26:43;19.95;;;8.63;;
36651;SDS011;53334;51.976;20.144;2023-05-07T11:29:18;21.50;;;9.40;;
36651;SDS011;53334;51.976;20.144;2023-05-07T11:31:59;16.98;;;8.90;;
36651;SDS011;53334;51.976;20.144;2023-05-07T11:34:40;13.68;;;6.88;;
36651;SDS011;53334;51.976;20.144;2023-05-07T11:37:17;18.20;;;8.60;;
36651;SDS011;53334;51.976;20.144;2023-05-07T11:40:03;19.67;;;9.05;;
36651;SDS011;53334;51.976;20.144;2023-05-07T11:42:38;14.65;;;8.02;;
36651;SDS011;53334;51.976;20.144;2023-05-07T11:45:12;19.83;;;8.00;;
36651;SDS011;53334;51.976;20.144;2023-05-07T11:47:56;19.90;;;8.25;;
36651;SDS011;53334;51.976;20.144;2023-05-07T11:50:29;21.20;;;8.40;;
36651;SDS011;53334;51.976;20.144;2023-05-07T11:53:08;16.38;;;8.82;;
36651;SDS011;53334;51.976;20.144;2023-05-07T11:55:44;19.23;;;7.80;;
36651;SDS011;53334;51.976;20.144;2023-05-07T11:58:20;16.92;;;8.30;;
36651;SDS011;53334;51.976;20.144;2023-05-07T12:00:55;15.65;;;7.32;;
36651;SDS011;53334;51.976;20.144;2023-05-07T12:03:28;15.48;;;7.47;;
36651;SDS011;53334;51.976;20.144;2023-05-07T12:06:06;14.95;;;6.93;;
36651;SDS011;53334;51.976;20.144;2023-05-07T12:11:21;17.85;;;7.63;;
36651;SDS011;53334;51.976;20.144;2023-05-07T12:13:56;13.38;;;6.78;;
36651;SDS011;53334;51.976;20.144;2023-05-07T12:16:30;13.40;;;6.63;;
36651;SDS011;53334;51.976;20.144;2023-05-07T12:21:40;17.73;;;7.03;;
36651;SDS011;53334;51.976;20.144;2023-05-07T12:26:52;10.95;;;6.43;;
36651;SDS011;53334;51.976;20.144;2023-05-07T12:29:25;14.95;;;5.85;;
36651;SDS011;53334;51.976;20.144;2023-05-07T12:31:59;13.18;;;6.47;;
36651;SDS011;53334;51.976;20.144;2023-05-07T12:34:33;13.77;;;6.68;;
36651;SDS011;53334;51.976;20.144;2023-05-07T12:37:06;13.50;;;6.55;;
36651;SDS011;53334;51.976;20.144;2023-05-07T12:39:46;12.65;;;6.78;;
36651;SDS011;53334;51.976;20.144;2023-05-07T12:42:21;14.20;;;6.82;;
36651;SDS011;53334;51.976;20.144;2023-05-07T12:44:57;15.50;;;5.70;;
36651;SDS011;53334;51.976;20.144;2023-05-07T12:47:30;19.13;;;7.30;;
36651;SDS011;53334;51.976;20.144;2023-05-07T12:52:38;13.75;;;6.28;;
36651;SDS011;53334;51.976;20.144;2023-05-07T12:55:13;14.75;;;6.22;;
36651;SDS011;53334;51.976;20.144;2023-05-07T12:57:48;15.43;;;6.07;;
36651;SDS011;53334;51.976;20.144;2023-05-07T13:00:33;12.80;;;5.85;;
36651;SDS011;53334;51.976;20.144;2023-05-07T13:03:07;9.10;;;5.63;;
36651;SDS011;53334;51.976;20.144;2023-05-07T13:05:40;12.02;;;6.28;;
36651;SDS011;53334;51.976;20.144;2023-05-07T13:08:22;15.38;;;7.10;;
36651;SDS011;53334;51.976;20.144;2023-05-07T13:10:58;16.55;;;6.47;;
36651;SDS011;53334;51.976;20.144;2023-05-07T13:13:35;13.68;;;5.35;;
36651;SDS011;53334;51.976;20.144;2023-05-07T13:16:10;16.75;;;5.20;;
36651;SDS011;53334;51.976;20.144;2023-05-07T13:18:44;15.48;;;7.00;;
36651;SDS011;53334;51.976;20.144;2023-05-07T13:21:17;168.85;;;72.38;;
36651;SDS011;53334;51.976;20.144;2023-05-07T13:23:51;206.30;;;86.40;;
36651;SDS011;53334;51.976;20.144;2023-05-07T13:26:25;416.05;;;163.65;;
36651;SDS011;53334;51.976;20.144;2023-05-07T13:28:59;535.47;;;248.93;;
36651;SDS011;53334;51.976;20.144;2023-05-07T13:31:32;606.70;;;296.25;;
36651;SDS011;53334;51.976;20.144;2023-05-07T13:34:07;494.33;;;220.45;;
36651;SDS011;53334;51.976;20.144;2023-05-07T13:36:40;428.38;;;182.10;;
36651;SDS011;53334;51.976;20.144;2023-05-07T13:39:13;382.92;;;163.93;;
36651;SDS011;53334;51.976;20.144;2023-05-07T13:41:48;369.27;;;157.55;;
36651;SDS011;53334;51.976;20.144;2023-05-07T13:44:21;377.95;;;164.32;;
36651;SDS011;53334;51.976;20.144;2023-05-07T13:46:54;378.70;;;161.38;;
36651;SDS011;53334;51.976;20.144;2023-05-07T13:49:28;334.25;;;148.90;;
36651;SDS011;53334;51.976;20.144;2023-05-07T13:52:01;296.10;;;132.50;;
36651;SDS011;53334;51.976;20.144;2023-05-07T13:54:34;328.60;;;142.65;;
36651;SDS011;53334;51.976;20.144;2023-05-07T13:57:09;302.42;;;138.80;;
36651;SDS011;53334;51.976;20.144;2023-05-07T13:59:42;298.55;;;133.13;;
36651;SDS011;53334;51.976;20.144;2023-05-07T14:02:16;288.80;;;131.95;;
36651;SDS011;53334;51.976;20.144;2023-05-07T14:04:49;290.38;;;127.13;;
36651;SDS011;53334;51.976;20.144;2023-05-07T14:07:22;264.52;;;120.05;;
36651;SDS011;53334;51.976;20.144;2023-05-07T14:09:56;287.25;;;118.75;;
36651;SDS011;53334;51.976;20.144;2023-05-07T14:12:31;261.85;;;113.05;;
36651;SDS011;53334;51.976;20.144;2023-05-07T14:15:04;232.52;;;104.93;;
36651;SDS011;53334;51.976;20.144;2023-05-07T14:20:12;223.95;;;100.30;;
36651;SDS011;53334;51.976;20.144;2023-05-07T14:22:45;197.77;;;92.72;;
36651;SDS011;53334;51.976;20.144;2023-05-07T14:25:19;207.20;;;91.75;;
36651;SDS011;53334;51.976;20.144;2023-05-07T14:27:56;168.90;;;81.47;;
36651;SDS011;53334;51.976;20.144;2023-05-07T14:30:30;180.07;;;81.78;;
36651;SDS011;53334;51.976;20.144;2023-05-07T14:33:03;164.00;;;81.72;;
36651;SDS011;53334;51.976;20.144;2023-05-07T14:35:37;175.43;;;78.72;;
36651;SDS011;53334;51.976;20.144;2023-05-07T14:38:10;150.35;;;70.85;;
36651;SDS011;53334;51.976;20.144;2023-05-07T14:40:44;137.23;;;68.20;;
36651;SDS011;53334;51.976;20.144;2023-05-07T14:43:19;140.02;;;64.32;;
36651;SDS011;53334;51.976;20.144;2023-05-07T14:45:54;140.95;;;64.50;;
36651;SDS011;53334;51.976;20.144;2023-05-07T14:48:27;127.43;;;59.05;;
36651;SDS011;53334;51.976;20.144;2023-05-07T14:51:00;133.98;;;60.10;;
36651;SDS011;53334;51.976;20.144;2023-05-07T14:53:34;112.00;;;54.97;;
36651;SDS011;53334;51.976;20.144;2023-05-07T14:56:07;118.40;;;55.58;;
36651;SDS011;53334;51.976;20.144;2023-05-07T14:58:42;113.20;;;51.47;;
36651;SDS011;53334;51.976;20.144;2023-05-07T15:01:15;108.03;;;49.72;;
36651;SDS011;53334;51.976;20.144;2023-05-07T15:03:49;114.10;;;49.85;;
36651;SDS011;53334;51.976;20.144;2023-05-07T15:06:22;97.65;;;45.25;;
36651;SDS011;53334;51.976;20.144;2023-05-07T15:08:57;104.32;;;49.35;;
36651;SDS011;53334;51.976;20.144;2023-05-07T15:11:30;101.32;;;47.47;;
36651;SDS011;53334;51.976;20.144;2023-05-07T15:14:05;87.13;;;43.55;;
36651;SDS011;53334;51.976;20.144;2023-05-07T15:16:38;95.40;;;43.63;;
36651;SDS011;53334;51.976;20.144;2023-05-07T15:19:12;96.18;;;40.13;;
36651;SDS011;53334;51.976;20.144;2023-05-07T15:21:46;89.18;;;41.97;;
36651;SDS011;53334;51.976;20.144;2023-05-07T15:24:19;82.70;;;42.53;;
36651;SDS011;53334;51.976;20.144;2023-05-07T15:26:53;87.05;;;39.85;;
36651;SDS011;53334;51.976;20.144;2023-05-07T15:29:28;83.72;;;40.38;;
36651;SDS011;53334;51.976;20.144;2023-05-07T15:32:03;78.20;;;43.80;;
36651;SDS011;53334;51.976;20.144;2023-05-07T15:34:39;81.45;;;39.95;;
36651;SDS011;53334;51.976;20.144;2023-05-07T15:37:16;79.53;;;40.65;;
36651;SDS011;53334;51.976;20.144;2023-05-07T15:39:51;76.75;;;37.70;;
36651;SDS011;53334;51.976;20.144;2023-05-07T15:42:26;92.80;;;44.30;;
36651;SDS011;53334;51.976;20.144;2023-05-07T15:45:00;89.75;;;38.85;;
36651;SDS011;53334;51.976;20.144;2023-05-07T15:47:34;93.97;;;40.92;;
36651;SDS011;53334;51.976;20.144;2023-05-07T15:50:08;93.97;;;39.65;;
36651;SDS011;53334;51.976;20.144;2023-05-07T15:52:42;70.13;;;35.08;;
36651;SDS011;53334;51.976;20.144;2023-05-07T15:55:17;75.50;;;34.90;;
36651;SDS011;53334;51.976;20.144;2023-05-07T15:57:51;74.35;;;36.65;;
36651;SDS011;53334;51.976;20.144;2023-05-07T16:00:26;94.90;;;48.08;;
36651;SDS011;53334;51.976;20.144;2023-05-07T16:03:00;83.47;;;43.33;;
36651;SDS011;53334;51.976;20.144;2023-05-07T16:05:34;91.05;;;37.65;;